Time;durP1;ratioP1;P1;durP2;ratioP2;P2;SDS_P1;SDS_P2;PMS_P1;PMS_P2;Temp;Humidity;BMP_temperature;BMP_pressure;BME280_temperature;BME280_humidity;BME280_pressure;Samples;Min_cycle;Max_cycle;Signal;HPM_P1;HPM_P2
2022/12/18 00:01:32;;;;;;;23.40;12.55;;;-0.70;99.90;;;;;;4960227;29;20045;-74
2022/12/18 00:03:59;;;;;;;22.27;11.65;;;-0.70;99.90;;;;;;4960676;29;20074;-75
2022/12/18 00:06:26;;;;;;;22.95;11.65;;;0.20;99.90;;;;;;4961167;29;20476;-74
2022/12/18 00:08:52;;;;;;;24.27;11.52;;;0.10;99.90;;;;;;4959260;29;20028;-75
2022/12/18 00:11:21;;;;;;;28.27;12.50;;;-0.10;99.90;;;;;;4960398;29;20043;-75
2022/12/18 00:13:47;;;;;;;24.10;11.82;;;0.00;99.90;;;;;;4958913;29;20046;-74
2022/12/18 00:16:15;;;;;;;21.23;10.27;;;-0.50;99.90;;;;;;4960797;29;20031;-75
2022/12/18 00:18:41;;;;;;;25.02;12.57;;;-0.80;99.90;;;;;;4959117;29;20464;-74
2022/12/18 00:21:11;;;;;;;23.60;11.23;;;-0.90;99.90;;;;;;4960347;29;20027;-74
2022/12/18 00:23:37;;;;;;;23.35;11.23;;;-0.90;99.90;;;;;;4958285;29;20059;-75
2022/12/18 00:26:05;;;;;;;25.10;12.10;;;-0.10;99.90;;;;;;4958714;29;20518;-75
2022/12/18 00:28:32;;;;;;;20.33;11.20;;;-0.90;99.90;;;;;;4960121;29;20122;-75
2022/12/18 00:31:00;;;;;;;21.45;10.38;;;-0.90;99.90;;;;;;4960192;29;20027;-75
2022/12/18 00:33:26;;;;;;;21.75;9.52;;;-0.80;99.90;;;;;;4959291;29;20114;-75
2022/12/18 00:35:52;;;;;;;19.88;10.63;;;-0.40;99.90;;;;;;4942271;29;20031;-74
2022/12/18 00:38:18;;;;;;;20.17;10.43;;;-0.50;99.90;;;;;;4959521;29;20034;-74
2022/12/18 00:40:44;;;;;;;17.98;9.90;;;-1.10;99.90;;;;;;4942162;29;20034;-74
2022/12/18 00:43:09;;;;;;;18.80;9.77;;;0.30;99.90;;;;;;4959091;29;20507;-74
2022/12/18 00:45:35;;;;;;;15.88;8.65;;;-0.90;99.90;;;;;;4942311;29;20448;-74
2022/12/18 00:48:01;;;;;;;15.63;8.38;;;-1.10;99.90;;;;;;4941403;29;20373;-74
2022/12/18 00:50:26;;;;;;;14.10;8.65;;;-1.40;99.90;;;;;;4959007;29;20031;-74
2022/12/18 00:52:52;;;;;;;12.82;7.80;;;-1.40;99.90;;;;;;4958816;29;20023;-74
2022/12/18 00:55:18;;;;;;;20.80;9.20;;;-1.50;99.90;;;;;;4958411;29;20032;-74
2022/12/18 00:57:43;;;;;;;21.88;9.15;;;-0.20;99.90;;;;;;4958334;29;20031;-74
2022/12/18 01:00:12;;;;;;;15.48;8.27;;;-1.40;99.90;;;;;;4941313;29;20468;-74
2022/12/18 01:02:38;;;;;;;;;;;-1.70;99.90;;;;;;4941719;29;20197;-74
2022/12/18 01:05:04;;;;;;;20.42;10.38;;;0.20;99.90;;;;;;4958384;29;20417;-74
2022/12/18 01:07:30;;;;;;;21.05;10.85;;;-1.90;99.90;;;;;;4941044;29;20023;-74
2022/12/18 01:09:56;;;;;;;24.63;11.95;;;-1.90;99.90;;;;;;4940516;29;20162;-73
2022/12/18 01:12:21;;;;;;;24.38;11.88;;;-0.40;99.90;;;;;;4940908;29;20042;-73
2022/12/18 01:14:47;;;;;;;24.40;11.57;;;0.00;99.90;;;;;;4957533;29;20035;-74
2022/12/18 01:17:13;;;;;;;31.52;12.13;;;-2.20;99.90;;;;;;4957771;29;20023;-73
2022/12/18 01:19:38;;;;;;;22.65;10.52;;;-1.90;99.90;;;;;;4957233;29;20074;-74
2022/12/18 01:22:04;;;;;;;20.08;10.38;;;-0.90;99.90;;;;;;4957262;29;20102;-73
2022/12/18 01:24:29;;;;;;;23.65;9.63;;;-0.90;99.90;;;;;;4940252;29;20052;-73
2022/12/18 01:26:57;;;;;;;21.08;11.05;;;-0.20;99.90;;;;;;4957175;29;20023;-73
2022/12/18 01:29:22;;;;;;;23.33;10.90;;;-2.50;99.90;;;;;;4940062;29;20082;-73
2022/12/18 01:31:49;;;;;;;23.08;10.43;;;-0.90;99.90;;;;;;4939570;29;20027;-73
2022/12/18 01:34:14;;;;;;;23.55;10.32;;;-1.30;99.90;;;;;;4956924;29;20047;-73
2022/12/18 01:36:40;;;;;;;21.00;10.73;;;-1.80;99.90;;;;;;4939183;29;20032;-73
2022/12/18 01:39:10;;;;;;;24.45;11.73;;;-2.70;99.90;;;;;;4939337;29;20035;-73
2022/12/18 01:45:05;;;;;;;24.63;10.98;;;-2.80;99.90;;;;;;4956571;29;20050;-73
2022/12/18 01:47:33;;;;;;;21.52;11.18;;;-2.90;99.90;;;;;;4935854;29;20484;-73
2022/12/18 01:50:06;;;;;;;24.65;11.23;;;-2.90;99.90;;;;;;4955844;29;20055;-73
2022/12/18 01:52:33;;;;;;;24.13;9.95;;;-3.00;99.90;;;;;;4941346;29;20130;-73
2022/12/18 01:55:00;;;;;;;24.80;11.10;;;-2.20;99.90;;;;;;4940549;29;20082;-73
2022/12/18 01:57:26;;;;;;;24.50;10.93;;;-2.90;99.90;;;;;;4955995;29;20028;-73
2022/12/18 01:59:55;;;;;;;21.85;10.30;;;-3.10;99.90;;;;;;4956726;29;20024;-73
2022/12/18 02:02:21;;;;;;;19.45;10.40;;;-2.20;99.90;;;;;;4955344;29;20031;-72
2022/12/18 02:04:47;;;;;;;20.40;10.63;;;-2.00;99.90;;;;;;4955642;29;20035;-72
2022/12/18 02:07:40;;;;;;;19.42;9.60;;;-3.20;99.90;;;;;;4939709;29;20027;-72
2022/12/18 02:10:28;;;;;;;20.58;9.90;;;-3.30;99.90;;;;;;4960457;29;20042;-72
2022/12/18 02:13:19;;;;;;;21.88;10.20;;;-3.30;99.90;;;;;;4959917;29;20051;-73
2022/12/18 02:15:51;;;;;;;18.95;9.60;;;-3.30;99.90;;;;;;4960085;29;20031;-72
2022/12/18 02:18:22;;;;;;;20.90;10.02;;;-2.50;99.90;;;;;;4942640;29;20027;-73
2022/12/18 02:21:12;;;;;;;18.98;10.10;;;-3.40;99.90;;;;;;4959680;29;20098;-73
2022/12/18 02:23:37;;;;;;;21.98;11.05;;;-3.40;99.90;;;;;;4958728;29;20437;-73
2022/12/18 02:26:39;;;;;;;22.83;10.32;;;-2.80;99.90;;;;;;4959400;29;20027;-73
2022/12/18 02:29:20;;;;;;;19.90;10.60;;;-3.50;99.90;;;;;;4926295;29;20031;-73
2022/12/18 02:31:52;;;;;;;21.80;10.70;;;-3.60;99.90;;;;;;4959336;29;20394;-73
2022/12/18 02:34:19;;;;;;;24.60;11.55;;;-3.00;99.90;;;;;;4958040;29;20039;-73
2022/12/18 02:36:47;;;;;;;23.63;9.90;;;-3.70;99.90;;;;;;4957838;29;20503;-72
2022/12/18 02:39:15;;;;;;;15.97;7.40;;;-2.80;99.90;;;;;;4959050;29;20285;-73
2022/12/18 02:41:41;;;;;;;21.08;9.85;;;-1.50;99.90;;;;;;4942165;29;20723;-73
2022/12/18 02:44:13;;;;;;;21.45;10.70;;;-3.90;99.90;;;;;;4942473;29;20082;-73
2022/12/18 02:46:48;;;;;;;21.73;10.75;;;-3.90;99.90;;;;;;4960826;29;20023;-73
2022/12/18 02:49:43;;;;;;;18.83;9.65;;;-2.20;99.90;;;;;;4962725;29;20110;-73
2022/12/18 02:52:24;;;;;;;22.08;10.60;;;-4.00;99.90;;;;;;4931986;29;20043;-73
2022/12/18 02:55:02;;;;;;;23.63;10.35;;;-4.00;99.90;;;;;;4959860;29;20037;-73
2022/12/18 02:57:55;;;;;;;20.38;9.98;;;-4.00;99.90;;;;;;4942319;29;20034;-73
2022/12/18 03:00:30;;;;;;;22.13;10.70;;;-4.00;99.90;;;;;;4941507;29;20035;-73
2022/12/18 03:03:05;;;;;;;23.85;10.23;;;-4.10;99.90;;;;;;4959478;29;20071;-73
2022/12/18 03:05:43;;;;;;;22.90;10.55;;;-3.70;99.90;;;;;;4959137;29;20462;-73
2022/12/18 03:08:13;;;;;;;22.87;10.47;;;-3.40;99.90;;;;;;4957925;29;20034;-72
2022/12/18 03:10:53;;;;;;;20.90;10.93;;;-4.10;99.90;;;;;;4958836;29;20027;-73
2022/12/18 03:13:52;;;;;;;23.90;10.13;;;-3.80;99.90;;;;;;4941728;29;20031;-73
2022/12/18 03:16:25;;;;;;;21.00;10.27;;;-3.70;99.90;;;;;;4940427;29;20063;-73
2022/12/18 03:19:20;;;;;;;24.38;11.25;;;-4.30;99.90;;;;;;4957291;28;20031;-73
2022/12/18 03:21:49;;;;;;;22.13;10.32;;;-4.30;99.90;;;;;;4934055;29;20039;-73
2022/12/18 03:24:16;;;;;;;22.52;10.98;;;-2.90;99.90;;;;;;4958523;29;20058;-73
2022/12/18 03:26:46;;;;;;;26.90;12.40;;;-4.20;99.90;;;;;;4941589;29;20037;-72
2022/12/18 03:29:26;;;;;;;21.27;11.10;;;-4.40;99.90;;;;;;4957166;29;20031;-72
2022/12/18 03:31:58;;;;;;;22.20;10.43;;;-4.40;99.90;;;;;;4958746;29;20027;-72
2022/12/18 03:34:30;;;;;;;30.70;12.05;;;-2.70;99.90;;;;;;4941095;29;20032;-72
2022/12/18 03:36:57;;;;;;;25.52;11.77;;;-3.00;99.90;;;;;;4958180;29;20035;-72
2022/12/18 03:39:24;;;;;;;26.67;10.93;;;-4.50;99.90;;;;;;4958543;29;20023;-73
2022/12/18 03:41:58;;;;;;;26.08;12.00;;;-3.50;99.90;;;;;;4941034;29;20475;-73
2022/12/18 03:44:36;;;;;;;22.02;10.52;;;-4.60;99.90;;;;;;4957084;29;20035;-72
2022/12/18 03:47:11;;;;;;;26.23;11.80;;;-3.40;99.90;;;;;;4958186;29;20542;-73
2022/12/18 03:49:59;;;;;;;26.40;11.38;;;-4.70;99.90;;;;;;4958319;29;20027;-72
2022/12/18 03:52:36;;;;;;;25.60;11.38;;;-4.80;99.90;;;;;;4956303;29;20027;-73
2022/12/18 03:55:04;;;;;;;24.30;10.80;;;-4.80;99.90;;;;;;4957785;29;20035;-72
2022/12/18 03:57:32;;;;;;;;;;;-4.80;99.90;;;;;;4956767;29;20031;-72
2022/12/18 04:00:03;;;;;;;21.90;10.35;;;-2.80;99.90;;;;;;4957474;29;19906;-72
2022/12/18 04:02:31;;;;;;;25.25;11.93;;;-4.90;99.90;;;;;;4956375;29;20027;-72
2022/12/18 04:05:00;;;;;;;26.95;12.15;;;-3.20;99.90;;;;;;4956394;29;20031;-72
2022/12/18 04:07:26;;;;;;;;;;;-3.90;99.90;;;;;;4956667;29;20038;-72
2022/12/18 04:09:55;;;;;;;23.40;10.60;;;-3.20;99.90;;;;;;4957700;29;19934;-72
2022/12/18 04:12:23;;;;;;;25.80;11.50;;;-2.50;99.90;;;;;;4957474;29;20044;-72
2022/12/18 04:14:49;;;;;;;29.20;12.52;;;-4.90;99.90;;;;;;4957265;29;20439;-71
2022/12/18 04:17:16;;;;;;;27.42;11.07;;;-4.80;99.90;;;;;;4940089;29;20055;-72
2022/12/18 04:19:41;;;;;;;28.05;11.40;;;-3.90;99.90;;;;;;4942301;29;20519;-72
2022/12/18 04:22:10;;;;;;;22.77;11.30;;;-2.50;99.90;;;;;;4944344;29;20459;-72
2022/12/18 04:24:35;;;;;;;23.25;11.40;;;-5.10;99.90;;;;;;4958201;29;20062;-72
2022/12/18 04:27:01;;;;;;;27.90;12.43;;;-3.30;99.90;;;;;;4957124;29;20031;-72
2022/12/18 04:29:27;;;;;;;26.08;11.05;;;-5.10;99.90;;;;;;4956877;28;20483;-72
2022/12/18 04:31:52;;;;;;;27.80;11.85;;;-4.40;99.90;;;;;;4956652;29;20058;-71
2022/12/18 04:34:18;;;;;;;29.85;12.30;;;-5.00;99.90;;;;;;4939392;29;20086;-71
2022/12/18 04:36:43;;;;;;;32.00;13.00;;;-3.10;99.90;;;;;;4956624;29;20027;-71
2022/12/18 04:39:09;;;;;;;28.38;11.07;;;-5.20;99.90;;;;;;4939600;29;20114;-71
2022/12/18 04:41:35;;;;;;;27.98;12.23;;;-5.20;99.90;;;;;;4939455;29;20030;-72
2022/12/18 04:44:01;;;;;;;29.77;12.50;;;-5.30;99.90;;;;;;4956856;29;20032;-71
2022/12/18 04:46:27;;;;;;;31.13;12.60;;;-5.30;99.90;;;;;;4956368;29;20031;-71
2022/12/18 04:48:52;;;;;;;34.78;13.30;;;-3.50;99.90;;;;;;4939710;29;20039;-71
2022/12/18 04:51:18;;;;;;;33.78;12.70;;;-3.20;99.90;;;;;;4939387;29;20024;-71
2022/12/18 04:53:43;;;;;;;31.85;12.90;;;-3.90;99.90;;;;;;4956501;29;20027;-71
2022/12/18 04:56:13;;;;;;;31.42;12.60;;;-5.40;99.90;;;;;;4938944;29;20039;-71
2022/12/18 04:58:40;;;;;;;26.60;12.45;;;-3.60;99.90;;;;;;4956232;29;20375;-71
2022/12/18 05:01:07;;;;;;;28.75;14.40;;;-3.50;99.90;;;;;;4956271;29;20057;-71
2022/12/18 05:03:33;;;;;;;33.80;14.38;;;-3.60;99.90;;;;;;4956158;29;20114;-71
2022/12/18 05:05:59;;;;;;;30.80;14.00;;;-5.40;99.90;;;;;;4956607;29;20027;-71
2022/12/18 05:08:25;;;;;;;29.38;13.63;;;-5.20;99.90;;;;;;4939033;29;20034;-70
2022/12/18 05:11:08;;;;;;;32.40;13.07;;;-5.40;99.90;;;;;;4939067;29;20054;-71
2022/12/18 05:13:35;;;;;;;37.17;13.45;;;-5.50;99.90;;;;;;4938945;29;20086;-70
2022/12/18 05:16:01;;;;;;;33.60;13.25;;;-5.50;99.90;;;;;;4954954;29;20031;-70
2022/12/18 05:18:28;;;;;;;26.55;11.75;;;-5.60;99.90;;;;;;4955833;29;20236;-70
2022/12/18 05:20:54;;;;;;;30.73;12.82;;;-3.90;99.90;;;;;;4956432;29;20031;-73
2022/12/18 05:23:21;;;;;;;28.55;11.57;;;-5.70;99.90;;;;;;4955976;29;20027;-72
2022/12/18 05:26:00;;;;;;;26.38;11.82;;;-3.90;99.90;;;;;;4954395;29;20141;-73
2022/12/18 05:28:28;;;;;;;33.42;13.63;;;-3.20;99.90;;;;;;4956091;29;20039;-72
2022/12/18 05:30:57;;;;;;;29.88;13.27;;;-3.90;99.90;;;;;;4955962;29;20058;-72
2022/12/18 05:33:24;;;;;;;;;;;-4.50;99.90;;;;;;4956442;29;20035;-72
2022/12/18 05:35:55;;;;;;;30.70;13.18;;;-3.80;99.90;;;;;;4955738;29;19910;-72
2022/12/18 05:38:21;;;;;;;34.28;13.60;;;-5.80;99.90;;;;;;4938514;29;20035;-72
2022/12/18 05:40:48;;;;;;;30.33;12.85;;;-4.20;99.90;;;;;;4956281;29;20036;-73
2022/12/18 05:43:14;;;;;;;34.40;13.30;;;-5.80;99.90;;;;;;4958683;28;20041;-72
2022/12/18 05:45:40;;;;;;;34.00;13.00;;;-5.80;99.90;;;;;;4942367;29;20027;-72
2022/12/18 05:48:07;;;;;;;32.92;14.48;;;-4.60;99.90;;;;;;4942349;29;20038;-73
2022/12/18 05:50:37;;;;;;;31.58;13.35;;;-5.90;99.90;;;;;;4960012;29;20027;-73
2022/12/18 05:53:04;;;;;;;34.53;13.60;;;-3.70;99.90;;;;;;4960079;29;20042;-73
2022/12/18 05:55:33;;;;;;;35.55;13.20;;;-6.00;99.90;;;;;;4944199;29;20078;-73
2022/12/18 05:57:59;;;;;;;33.80;13.20;;;-6.00;99.90;;;;;;4961880;29;20054;-73
2022/12/18 06:00:25;;;;;;;34.03;12.60;;;-3.60;99.90;;;;;;4944834;29;20469;-73
2022/12/18 06:02:50;;;;;;;27.80;12.35;;;-3.90;99.90;;;;;;4960090;29;20031;-73
2022/12/18 06:05:16;;;;;;;30.35;13.68;;;-4.10;99.90;;;;;;4942602;29;20046;-73
2022/12/18 06:07:41;;;;;;;31.00;12.88;;;-6.10;99.90;;;;;;4942273;29;20106;-73
2022/12/18 06:10:07;;;;;;;32.47;13.43;;;-6.20;99.90;;;;;;4942298;29;20078;-73
2022/12/18 06:12:33;;;;;;;35.28;13.50;;;-6.20;99.90;;;;;;4942532;29;20492;-73
2022/12/18 06:14:59;;;;;;;28.60;13.30;;;-6.20;99.90;;;;;;4959207;29;20032;-73
2022/12/18 06:17:32;;;;;;;32.00;12.45;;;-6.30;99.90;;;;;;4959325;29;20042;-72
2022/12/18 06:19:58;;;;;;;30.45;13.27;;;-6.20;99.90;;;;;;4959157;29;20027;-72
2022/12/18 06:22:24;;;;;;;31.60;13.13;;;-4.70;99.90;;;;;;4959256;29;20031;-72
2022/12/18 06:24:50;;;;;;;35.05;13.88;;;-4.50;99.90;;;;;;4959366;29;20047;-73
2022/12/18 06:27:16;;;;;;;28.85;13.75;;;-4.70;99.90;;;;;;4941401;29;20130;-73
2022/12/18 06:29:42;;;;;;;29.20;13.18;;;-5.00;99.90;;;;;;4959055;29;20039;-73
2022/12/18 06:32:08;;;;;;;29.35;13.77;;;-6.30;99.90;;;;;;4941748;29;20057;-73
2022/12/18 06:34:34;;;;;;;32.05;14.10;;;-6.30;99.90;;;;;;4942048;29;20038;-72
2022/12/18 06:36:59;;;;;;;30.23;12.82;;;-6.30;99.90;;;;;;4957301;29;20035;-73
2022/12/18 06:39:27;;;;;;;30.33;12.80;;;-6.30;99.90;;;;;;4960057;29;20027;-73
2022/12/18 06:41:53;;;;;;;30.27;13.73;;;-6.30;99.90;;;;;;4960603;29;20028;-73
2022/12/18 06:44:19;;;;;;;35.90;13.32;;;-6.40;99.90;;;;;;4942588;29;20039;-73
2022/12/18 06:46:45;;;;;;;34.22;13.88;;;-6.40;99.90;;;;;;4959294;29;20023;-73
2022/12/18 06:49:10;;;;;;;25.42;12.40;;;-5.50;99.90;;;;;;4941888;29;20027;-73
2022/12/18 06:51:36;;;;;;;30.83;13.30;;;-6.40;99.90;;;;;;4941284;29;20035;-74
2022/12/18 06:54:02;;;;;;;28.80;12.98;;;-6.00;99.90;;;;;;4941316;29;20086;-73
2022/12/18 06:56:28;;;;;;;34.95;13.82;;;-6.40;99.90;;;;;;4958914;29;20031;-73
2022/12/18 06:58:54;;;;;;;29.08;14.02;;;-6.40;99.90;;;;;;4958326;29;20106;-73
2022/12/18 07:01:21;;;;;;;32.17;14.15;;;-6.40;99.90;;;;;;4941345;29;20028;-72
2022/12/18 07:03:51;;;;;;;27.85;12.90;;;-6.50;99.90;;;;;;4957169;29;20438;-73
2022/12/18 07:06:19;;;;;;;29.70;13.15;;;-6.50;99.90;;;;;;4958214;29;20031;-73
2022/12/18 07:08:45;;;;;;;32.47;12.57;;;-6.50;99.90;;;;;;4957736;29;20090;-72
2022/12/18 07:11:12;;;;;;;30.52;12.63;;;-6.50;99.90;;;;;;4958304;29;20114;-72
2022/12/18 07:13:37;;;;;;;31.05;15.50;;;-6.40;99.90;;;;;;4940595;29;20027;-72
2022/12/18 07:16:07;;;;;;;36.40;14.63;;;-4.20;99.90;;;;;;4958071;29;20135;-73
2022/12/18 07:18:32;;;;;;;34.45;14.00;;;-6.30;99.90;;;;;;4957817;29;20037;-74
2022/12/18 07:21:01;;;;;;;37.95;15.57;;;-5.60;99.90;;;;;;4957686;29;20031;-72
2022/12/18 07:23:27;;;;;;;34.78;15.25;;;-5.60;99.90;;;;;;4958007;29;20106;-72
2022/12/18 07:25:53;;;;;;;36.28;14.65;;;-6.30;99.90;;;;;;4958073;29;20129;-73
2022/12/18 07:28:18;;;;;;;30.48;15.02;;;-4.20;99.90;;;;;;4958101;29;20034;-71
2022/12/18 07:30:44;;;;;;;30.92;14.30;;;-6.20;99.90;;;;;;4940626;29;20034;-72
2022/12/18 07:33:09;;;;;;;31.08;12.90;;;-6.30;99.90;;;;;;4957701;29;20030;-73
2022/12/18 07:35:35;;;;;;;32.33;14.32;;;-6.30;99.90;;;;;;4957649;29;20031;-72
2022/12/18 07:38:01;;;;;;;30.17;13.63;;;-6.30;99.90;;;;;;4957926;29;20034;-73
2022/12/18 07:40:26;;;;;;;27.70;11.80;;;-6.20;99.90;;;;;;4940498;29;20035;-73
2022/12/18 07:42:52;;;;;;;37.92;14.73;;;-6.20;99.90;;;;;;4957336;29;20044;-72
2022/12/18 07:45:17;;;;;;;33.10;14.20;;;-4.30;99.90;;;;;;4957362;29;20035;-72
2022/12/18 07:47:43;;;;;;;29.27;13.50;;;-5.10;99.90;;;;;;4940338;29;20030;-74
2022/12/18 07:50:09;;;;;;;33.63;13.10;;;-4.10;99.90;;;;;;4957867;29;20030;-73
2022/12/18 07:52:35;;;;;;;30.50;13.10;;;-4.20;99.90;;;;;;4957360;29;20038;-70
2022/12/18 07:55:00;;;;;;;39.65;14.02;;;-6.20;99.90;;;;;;4939897;29;20383;-72
2022/12/18 07:57:26;;;;;;;41.20;15.35;;;-6.10;99.90;;;;;;4957531;29;20046;-73
2022/12/18 07:59:51;;;;;;;33.47;15.02;;;-5.30;99.90;;;;;;4957187;29;20380;-73
2022/12/18 08:02:17;;;;;;;30.25;14.23;;;-6.00;99.90;;;;;;4939994;29;20034;-73
2022/12/18 08:04:43;;;;;;;37.65;12.98;;;-6.00;99.90;;;;;;4956676;28;20035;-69
2022/12/18 08:07:09;;;;;;;38.75;14.88;;;-6.00;99.90;;;;;;4957111;29;20031;-71
2022/12/18 08:09:34;;;;;;;33.40;14.27;;;-4.30;99.90;;;;;;4956729;29;20027;-55
2022/12/18 08:12:00;;;;;;;30.08;14.15;;;-5.90;99.90;;;;;;4957028;29;20028;-76
2022/12/18 08:14:26;;;;;;;32.50;14.15;;;-5.80;99.90;;;;;;4957023;29;20622;-78
2022/12/18 08:16:51;;;;;;;39.40;15.55;;;-5.70;99.90;;;;;;4957508;29;20038;-72
2022/12/18 08:19:17;;;;;;;40.10;14.52;;;-3.60;99.90;;;;;;4957424;29;20551;-71
2022/12/18 08:21:43;;;;;;;33.30;14.38;;;-5.40;99.90;;;;;;4940401;29;20502;-75
2022/12/18 08:24:10;;;;;;;35.60;14.95;;;-3.70;99.90;;;;;;4939654;29;20447;-76
2022/12/18 08:26:36;;;;;;;33.22;14.38;;;-5.00;99.90;;;;;;4956355;29;20078;-72
2022/12/18 08:29:02;;;;;;;37.95;16.55;;;-3.30;99.90;;;;;;4956642;29;20028;-73
2022/12/18 08:31:29;;;;;;;38.00;14.90;;;-2.80;99.90;;;;;;4957158;29;20051;-71
2022/12/18 08:33:55;;;;;;;36.00;14.52;;;-3.90;99.90;;;;;;4940006;29;20031;-70
2022/12/18 08:36:22;;;;;;;29.77;14.02;;;-2.50;99.90;;;;;;4956986;29;20039;-72
2022/12/18 08:38:48;;;;;;;31.85;13.90;;;-3.00;99.90;;;;;;4956692;29;20431;-73
2022/12/18 08:41:16;;;;;;;28.15;13.10;;;-2.90;99.90;;;;;;4958144;29;20031;-74
2022/12/18 08:46:31;;;;;;;28.00;12.77;;;-1.80;99.90;;;;;;4957210;29;20278;-58
2022/12/18 08:48:56;;;;;;;26.27;13.10;;;-2.60;99.90;;;;;;4959134;29;20042;-64
2022/12/18 08:51:22;;;;;;;28.63;13.05;;;-2.60;99.90;;;;;;4959049;29;20027;-73
2022/12/18 08:53:47;;;;;;;27.55;14.50;;;-2.60;99.90;;;;;;4957635;29;20487;-74
2022/12/18 08:56:14;;;;;;;28.58;13.77;;;-2.60;99.90;;;;;;4957376;29;20038;-73
2022/12/18 08:58:40;;;;;;;28.55;12.63;;;-2.70;99.90;;;;;;4958157;29;20027;-74
2022/12/18 09:01:11;;;;;;;31.95;14.30;;;-2.70;99.90;;;;;;4961798;29;20058;-74
2022/12/18 09:03:38;;;;;;;27.40;13.85;;;-2.80;99.90;;;;;;4944409;29;20062;-74
2022/12/18 09:06:04;;;;;;;26.65;13.80;;;-2.70;99.90;;;;;;4943404;29;20444;-73
2022/12/18 09:08:30;;;;;;;29.40;14.13;;;-2.70;99.90;;;;;;4957327;29;20032;-73
2022/12/18 09:10:56;;;;;;;33.83;14.52;;;-2.70;99.90;;;;;;4956681;29;20479;-74
2022/12/18 09:13:22;;;;;;;29.52;14.15;;;-2.60;99.90;;;;;;4957073;29;20024;-74
2022/12/18 09:15:52;;;;;;;28.85;13.82;;;-2.60;99.90;;;;;;4957108;28;20041;-74
2022/12/18 09:18:20;;;;;;;30.58;13.70;;;-2.60;99.90;;;;;;4962117;29;20027;-76
2022/12/18 09:20:46;;;;;;;34.45;16.67;;;-2.10;99.90;;;;;;4963574;29;20038;-77
2022/12/18 09:23:12;;;;;;;34.30;14.82;;;-2.10;99.90;;;;;;4947121;29;20035;-76
2022/12/18 09:25:39;;;;;;;30.08;15.45;;;-2.50;99.90;;;;;;4964554;29;20114;-75
2022/12/18 09:28:17;;;;;;;30.52;15.40;;;-1.90;99.90;;;;;;4946382;29;20032;-75
2022/12/18 09:30:44;;;;;;;;;;;-2.40;99.90;;;;;;4964242;29;20483;-75
2022/12/18 09:33:10;;;;;;;29.42;14.52;;;-1.60;99.90;;;;;;4946460;29;19906;-76
2022/12/18 09:35:37;;;;;;;34.50;15.95;;;-2.30;99.90;;;;;;4963516;29;20031;-76
2022/12/18 09:38:03;;;;;;;36.65;17.15;;;-1.30;99.90;;;;;;4946662;29;20468;-72
2022/12/18 09:40:34;;;;;;;35.05;16.17;;;-2.30;99.90;;;;;;4963668;29;20034;-71
2022/12/18 09:43:04;;;;;;;31.00;15.85;;;-1.70;99.90;;;;;;4963707;28;20023;-74
2022/12/18 09:45:44;;;;;;;40.90;17.85;;;-2.10;99.90;;;;;;4962289;29;20133;-72
2022/12/18 09:48:32;;;;;;;43.33;20.08;;;-2.00;99.90;;;;;;4963367;29;20042;-73
2022/12/18 09:51:03;;;;;;;32.13;14.60;;;-2.00;99.90;;;;;;4961891;29;20027;-75
2022/12/18 09:53:34;;;;;;;43.28;18.77;;;-1.60;99.90;;;;;;4946216;29;20038;-77
2022/12/18 09:56:01;;;;;;;41.30;18.50;;;-1.60;99.90;;;;;;4963297;28;20035;-77
2022/12/18 09:58:38;;;;;;;41.22;18.88;;;-1.80;99.90;;;;;;4962975;28;20035;-76
2022/12/18 10:01:11;;;;;;;40.70;18.98;;;-1.80;99.90;;;;;;4946246;29;20023;-77
2022/12/18 10:03:37;;;;;;;42.42;19.52;;;-1.60;99.90;;;;;;4962860;28;20073;-78
2022/12/18 10:06:05;;;;;;;44.47;19.38;;;-1.30;99.90;;;;;;4946150;29;20486;-74
2022/12/18 10:08:53;;;;;;;49.40;23.70;;;-1.60;99.90;;;;;;4946341;29;20031;-74
2022/12/18 10:11:48;;;;;;;44.25;19.83;;;-1.50;99.90;;;;;;4945889;29;20569;-74
2022/12/18 10:14:26;;;;;;;45.13;19.95;;;-1.40;99.90;;;;;;4963361;28;20082;-74
2022/12/18 10:17:10;;;;;;;46.13;21.65;;;-1.30;99.90;;;;;;4963300;28;20062;-74
2022/12/18 10:19:49;;;;;;;46.60;19.98;;;-1.30;99.90;;;;;;4962986;28;20027;-74
2022/12/18 10:22:54;;;;;;;41.53;19.58;;;-1.40;99.90;;;;;;4963033;29;20023;-73
2022/12/18 10:25:37;;;;;;;50.10;21.95;;;-1.50;99.90;;;;;;4962355;29;20078;-73
2022/12/18 10:28:17;;;;;;;43.92;21.30;;;-1.50;99.90;;;;;;4960923;28;20059;-73
2022/12/18 10:30:44;;;;;;;44.95;20.88;;;-1.70;99.90;;;;;;4957787;29;20027;-74
2022/12/18 10:33:21;;;;;;;51.63;21.77;;;-1.80;99.90;;;;;;4957986;29;20034;-74
2022/12/18 10:35:52;;;;;;;52.67;23.43;;;-1.80;99.90;;;;;;4959417;29;20035;-74
2022/12/18 10:38:19;;;;;;;48.58;22.67;;;-1.70;99.90;;;;;;4959682;29;20031;-74
2022/12/18 10:40:58;;;;;;;45.72;21.40;;;-1.60;99.90;;;;;;4942368;29;20024;-74
2022/12/18 10:43:38;;;;;;;49.17;22.23;;;-1.60;99.90;;;;;;4958407;29;20023;-56
2022/12/18 10:46:07;;;;;;;52.67;22.50;;;-1.50;99.90;;;;;;4955835;29;20479;-73
2022/12/18 10:48:46;;;;;;;48.63;21.25;;;-1.40;99.90;;;;;;4943350;29;20055;-74
2022/12/18 10:51:36;;;;;;;53.42;23.27;;;-1.50;99.90;;;;;;4958609;29;20053;-75
2022/12/18 10:54:06;;;;;;;48.17;21.95;;;-1.40;99.90;;;;;;4958725;29;20024;-75
2022/12/18 10:56:34;;;;;;;46.03;20.63;;;-1.30;99.90;;;;;;4958580;29;20034;-75
2022/12/18 10:59:06;;;;;;;37.67;16.02;;;-1.40;99.90;;;;;;4957073;29;20462;-75
2022/12/18 11:01:56;;;;;;;53.38;23.40;;;-0.50;99.90;;;;;;4957188;29;20118;-74
2022/12/18 11:04:27;;;;;;;48.28;21.23;;;-1.20;99.90;;;;;;4949334;29;20031;-72
2022/12/18 11:07:00;;;;;;;45.83;19.88;;;-1.50;99.90;;;;;;4941505;29;20383;-74
2022/12/18 11:09:37;;;;;;;45.22;20.63;;;-1.40;99.90;;;;;;4941222;29;20032;-74
2022/12/18 11:12:14;;;;;;;48.35;21.77;;;-1.10;99.90;;;;;;4958503;29;20460;-74
2022/12/18 11:14:45;;;;;;;48.33;21.67;;;-1.40;99.90;;;;;;4940876;29;20086;-74
2022/12/18 11:17:34;;;;;;;50.35;21.40;;;-1.30;99.90;;;;;;4940745;29;20027;-74
2022/12/18 11:20:34;;;;;;;44.00;20.15;;;-1.10;99.90;;;;;;4958124;29;20035;-75
2022/12/18 11:23:22;;;;;;;47.15;20.83;;;-1.40;99.90;;;;;;4935704;29;20413;-74
2022/12/18 11:25:57;;;;;;;47.30;21.38;;;-1.40;99.90;;;;;;4940508;29;20058;-74
2022/12/18 11:28:34;;;;;;;52.58;22.17;;;-1.40;99.90;;;;;;4940283;29;20031;-72
2022/12/18 11:31:24;;;;;;;50.97;21.25;;;-1.40;99.90;;;;;;4957985;29;20023;-73
2022/12/18 11:34:02;;;;;;;48.75;20.52;;;-1.30;99.90;;;;;;4957949;29;20030;-72
2022/12/18 11:36:39;;;;;;;47.90;20.85;;;-1.30;99.90;;;;;;4957859;29;20058;-72
2022/12/18 11:39:28;;;;;;;46.78;19.88;;;-1.40;99.90;;;;;;4958444;28;20509;-72
2022/12/18 11:42:11;;;;;;;;;;;-1.50;99.90;;;;;;4934162;29;20440;-72
2022/12/18 11:45:07;;;;;;;43.75;20.02;;;-1.80;99.90;;;;;;4923526;29;20278;-73
2022/12/18 11:47:49;;;;;;;47.83;20.02;;;-1.80;99.90;;;;;;4922546;29;20027;-73
2022/12/18 11:50:36;;;;;;;40.22;19.05;;;-1.70;99.90;;;;;;4939027;29;20046;-73
2022/12/18 11:53:02;;;;;;;38.45;17.27;;;-1.70;99.90;;;;;;4938715;29;20079;-72
2022/12/18 11:55:37;;;;;;;40.53;16.33;;;-1.80;99.90;;;;;;4921203;29;20106;-73
2022/12/18 11:58:12;;;;;;;39.38;18.30;;;-1.90;99.90;;;;;;4921565;29;20126;-73
2022/12/18 12:00:49;;;;;;;45.08;17.60;;;-1.90;99.90;;;;;;4921225;29;20028;-73
2022/12/18 12:03:33;;;;;;;43.25;17.15;;;-1.80;99.90;;;;;;4921688;29;20201;-72
2022/12/18 12:06:40;;;;;;;47.08;18.60;;;-1.90;99.90;;;;;;4938664;29;20023;-72
2022/12/18 12:09:17;;;;;;;45.38;18.70;;;-1.90;99.90;;;;;;4896065;29;20234;-73
2022/12/18 12:11:53;;;;;;;43.20;17.73;;;-1.90;99.90;;;;;;4920418;29;20114;-73
2022/12/18 12:14:21;;;;;;;42.65;15.88;;;-2.00;99.90;;;;;;4937858;29;20098;-72
2022/12/18 12:16:47;;;;;;;45.13;20.00;;;-2.00;99.90;;;;;;4921081;29;20032;-73
2022/12/18 12:19:51;;;;;;;48.10;17.73;;;-1.90;99.90;;;;;;4937757;29;20030;-72
2022/12/18 12:22:35;;;;;;;48.70;19.65;;;-1.80;99.90;;;;;;4879297;29;20047;-72
2022/12/18 12:25:10;;;;;;;49.63;20.85;;;-1.70;99.90;;;;;;4937557;29;20564;-72
2022/12/18 12:27:47;;;;;;;41.83;18.70;;;-1.60;99.90;;;;;;4937841;29;20032;-72
2022/12/18 12:30:20;;;;;;;69.05;26.67;;;-1.50;99.90;;;;;;4937576;29;20058;-72
2022/12/18 12:33:07;;;;;;;50.00;18.90;;;-1.50;99.90;;;;;;4937445;29;20023;-73
2022/12/18 12:35:54;;;;;;;47.28;18.60;;;-1.40;99.90;;;;;;4937140;29;20032;-73
2022/12/18 12:38:22;;;;;;;100.25;31.58;;;-1.40;99.90;;;;;;4920196;29;20067;-72
2022/12/18 12:40:54;;;;;;;64.55;28.38;;;-1.30;99.90;;;;;;4937149;29;20055;-70
2022/12/18 12:43:38;;;;;;;53.70;22.50;;;-0.70;99.90;;;;;;4920170;29;20034;-70
2022/12/18 12:46:05;;;;;;;46.00;20.73;;;-1.30;99.90;;;;;;4920242;29;20434;-71
2022/12/18 12:48:52;;;;;;;53.35;22.15;;;-1.30;99.90;;;;;;4920071;29;20055;-72
2022/12/18 12:51:23;;;;;;;46.08;22.05;;;-1.30;99.90;;;;;;4919812;29;20472;-72
2022/12/18 12:53:51;;;;;;;91.53;35.88;;;-1.30;99.90;;;;;;4920482;29;20122;-72
2022/12/18 12:56:19;;;;;;;46.38;20.10;;;-1.20;99.90;;;;;;4920574;29;20047;-74